KWWD/WWD METAR and TAF weather

Enter ICAO airport designator
Station Type Date Time Source
KWWD METAR 2022/01/29 09:56 UTC NOAA

KWWD 290956Z AUTO 35016G23KT 1/4SM +SN FZFG OVC004 M03/M03 A2964 RMK AO2 SLP040 P0000 T10281033 FZRANO $


Station Type Date Time Source
KWWD Decoded METAR 2022/01/29 09:56 UTC NOAA

Wildwood, Cape May County Airport, NJ, United States (KWWD) 39-01N 074-55W
Jan 29, 2022 - 04:56 AM EST / 2022.01.29 0956 UTC
Wind: from the N (350 degrees) at 18 MPH (16 KT) gusting to 26 MPH (23 KT):0
Visibility: 1/4 mile(s):0
Sky conditions: overcast
Weather: heavy snow; freezing fog
Precipitation last hour: A trace
Temperature: 27.0 F (-2.8 C)
Windchill: 14 F (-10 C):1
Dew Point: 26.1 F (-3.3 C)
Relative Humidity: 96%
Pressure (altimeter): 29.64 in. Hg (1003 hPa)
ob: KWWD 290956Z AUTO 35016G23KT 1/4SM +SN FZFG OVC004 M03/M03 A2964 RMK AO2 SLP040 P0000 T10281033 FZRANO
cycle: 10

Station Type Date Time Source
KWWD TAF UTC NOAA

Error!

Example: see airport list